• Join FlightAware (Why Join?)
  • Login
  • US Flag 
11:49AM EST


 

Airport Tracker/Info


-or-


 

Live Flight TrackerFlight Track Log ✈ UPS1216 ✈ 08-May-2013 ✈ KRFD - KBWI

Flight Track Log - Related Links

Times and Time Zones

All times are in EDT time to prevent confusion due to time zone crossing. See the UPS1216 flight status page for this flight to view local times or setup timezone preferences in your user account.

Time Position Orientation Groundspeed Altitude Reporting Facility
EDT Latitude Longitude Course Direction KTS MPH feet Rate Location/Type
03:58AM 42.2010 -89.0890 51° Northeast 153 176 1,500  Level FlightAware
03:58AM 42.2020 -89.0750 84° East 168 193 1,900 1,200 Climbing FlightAware
03:59AM 42.2020 -89.0460 90° East 195 224 2,300 1,680 Climbing FlightAware
03:59AM 42.2020 -89.0140 90° East 210 242 3,300 2,580 Climbing FlightAware
04:00AM 42.2040 -88.9720 86° East 229 264 4,700 2,400 Climbing FlightAware
04:00AM 42.2040 -88.9490 90° East 253 291 5,100 2,220 Climbing FlightAware
04:00AM 42.2060 -88.8980 87° East 270 311 6,400 2,580 Climbing FlightAware
04:01AM 42.2080 -88.8560 86° East 279 321 7,500 2,520 Climbing FlightAware
04:01AM 42.2090 -88.8290 87° East 283 326 8,100 2,880 Climbing FlightAware
04:02AM 42.2100 -88.7750 89° East 288 331 9,700 2,520 Climbing FlightAware
04:02AM 42.2110 -88.7030 89° East 318 366 11,100 1,860 Climbing FlightAware
04:03AM 42.2130 -88.6180 88° East 356 410 12,200 2,040 Climbing FlightAware
04:04AM 42.2140 -88.5130 89° East 375 432 14,000 2,520 Climbing FlightAware
04:04AM 42.2160 -88.4180 88° East 386 444 15,800 2,460 Climbing FlightAware
04:05AM 42.2170 -88.3440 89° East 395 455 17,100 2,400 Climbing FlightAware
04:06AM 42.2190 -88.2040 89° East 408 470 19,200 2,460 Climbing FlightAware
04:06AM 42.2200 -88.1000 89° East 414 476 20,800 2,160 Climbing FlightAware
04:07AM 42.2210 -88.0020 89° East 420 483 22,100 1,800 Climbing FlightAware
04:08AM 42.2030 -87.8950 103° East 428 493 23,400 1,920 Climbing FlightAware
04:09AM 42.1620 -87.7790 115° Southeast 436 502 25,000 1,920 Climbing FlightAware
04:09AM 42.1280 -87.6850 116° Southeast 441 507 26,200 1,800 Climbing FlightAware
04:10AM 42.0900 -87.5780 116° Southeast 451 519 27,400 1,860 Climbing FlightAware
04:11AM 42.0480 -87.4580 115° Southeast 459 528 28,900 1,800 Climbing FlightAware
04:11AM 42.0120 -87.3560 115° Southeast 464 534 30,000 1,980 Climbing FlightAware
04:12AM 41.9760 -87.2550 116° Southeast 454 522 31,600 2,400 Climbing FlightAware
04:13AM 41.9340 -87.1390 116° Southeast 446 513 33,400 2,100 Climbing FlightAware
04:13AM 41.8990 -87.0430 116° Southeast 445 512 34,600 1,860 Climbing FlightAware
04:14AM 41.8580 -86.9280 116° Southeast 440 506 36,100 1,680 Climbing FlightAware
04:15AM 41.8290 -86.8320 112° Southeast 437 503 37,000 600 Climbing FlightAware
04:16AM 41.7970 -86.7130 110° East 440 506 37,000  Level FlightAware
04:16AM 41.7690 -86.6070 109° East 442 509 37,000  Level FlightAware
04:17AM 41.7420 -86.5090 110° East 440 506 37,000  Level FlightAware
04:18AM 41.7090 -86.3890 110° East 438 504 37,000  Level FlightAware
04:18AM 41.6820 -86.2880 110° East 436 502 37,000  Level FlightAware
04:19AM 41.6500 -86.1720 110° East 432 497 37,000  Level FlightAware
04:20AM 41.6230 -86.0740 110° East 429 494 37,000  Level FlightAware
04:20AM 41.5920 -85.9620 110° East 426 490 37,000  Level FlightAware
04:21AM 41.5670 -85.8720 110° East 424 488 37,000  Level FlightAware
04:22AM 41.5320 -85.7490 111° Southeast 422 486 37,000  Level FlightAware
04:23AM 41.5050 -85.6510 110° East 420 483 37,000  Level FlightAware
04:23AM 41.4790 -85.5580 110° East 419 482 37,000  Level FlightAware
04:24AM 41.4470 -85.4460 111° Southeast 419 482 37,000  Level FlightAware
04:25AM 41.4200 -85.3500 111° Southeast 419 482 37,000  Level FlightAware
04:25AM 41.3880 -85.2360 110° East 418 481 37,000  Level FlightAware
04:26AM 41.3620 -85.1460 111° Southeast 417 480 37,000  Level FlightAware
04:27AM 41.3350 -85.0480 110° East 417 480 37,000  Level FlightAware
04:27AM 41.3070 -84.9410 109° East 416 479 37,000  Level FlightAware
04:28AM 41.2790 -84.8380 110° East 416 479 37,000  Level FlightAware
04:29AM 41.2530 -84.7410 110° East 416 479 37,000  Level FlightAware
04:30AM 41.2230 -84.6300 110° East 415 478 37,000  Level FlightAware
04:30AM 41.1970 -84.5340 110° East 415 478 37,000  Level FlightAware
04:31AM 41.1680 -84.4280 110° East 415 478 37,000  Level FlightAware
04:32AM 41.1420 -84.3320 110° East 415 478 37,000  Level FlightAware
04:32AM 41.1150 -84.2340 110° East 415 478 37,000  Level FlightAware
04:33AM 41.0860 -84.1290 110° East 415 478 37,000  Level FlightAware
04:34AM 41.0580 -84.0290 110° East 413 475 37,000  Level FlightAware
04:34AM 41.0290 -83.9220 110° East 413 475 37,000  Level FlightAware
04:35AM 41.0020 -83.8270 111° Southeast 413 475 37,000  Level FlightAware
04:36AM 40.9730 -83.7230 110° East 412 474 37,000  Level FlightAware
04:37AM 40.9460 -83.6270 110° East 412 474 37,000  Level FlightAware
04:37AM 40.9220 -83.5440 111° Southeast 412 474 37,000  Level FlightAware
04:38AM 40.8890 -83.4290 111° Southeast 412 474 37,000  Level FlightAware
04:39AM 40.8550 -83.3080 110° East 413 475 37,000  Level FlightAware
04:40AM 40.8260 -83.2080 111° Southeast 413 475 37,000  Level FlightAware
04:40AM 40.7930 -83.0960 111° Southeast 413 475 37,000  Level FlightAware
04:41AM 40.7650 -82.9980 111° Southeast 413 475 37,000  Level FlightAware
04:42AM 40.7380 -82.9020 110° East 414 476 37,000  Level FlightAware
04:42AM 40.7080 -82.7970 111° Southeast 414 476 37,000  Level FlightAware
04:43AM 40.6790 -82.6980 111° Southeast 416 479 37,000  Level FlightAware
04:44AM 40.6480 -82.5920 111° Southeast 416 479 37,000  Level FlightAware
04:44AM 40.6200 -82.4960 111° Southeast 417 480 37,000  Level FlightAware
04:45AM 40.5940 -82.4060 111° Southeast 418 481 37,000  Level FlightAware
04:46AM 40.5610 -82.2950 111° Southeast 419 482 37,000  Level FlightAware
04:47AM 40.5330 -82.2010 111° Southeast 419 482 37,000  Level FlightAware
04:47AM 40.5000 -82.0910 111° Southeast 422 486 37,000  Level FlightAware
04:48AM 40.4720 -81.9960 111° Southeast 423 487 37,000  Level FlightAware
04:49AM 40.4440 -81.9030 112° Southeast 424 488 37,000  Level FlightAware
04:49AM 40.4100 -81.7920 112° Southeast 427 491 37,000  Level FlightAware
04:50AM 40.3810 -81.6960 112° Southeast 430 495 37,000  Level FlightAware
04:51AM 40.3480 -81.5880 112° Southeast 431 496 37,000  Level FlightAware
04:51AM 40.3180 -81.4880 111° Southeast 432 497 37,000  Level FlightAware
04:52AM 40.2880 -81.3910 112° Southeast 432 497 37,000  Level FlightAware
04:53AM 40.2540 -81.2810 112° Southeast 433 498 37,000  Level FlightAware
04:54AM 40.2250 -81.1850 112° Southeast 433 498 37,000  Level FlightAware
04:54AM 40.1900 -81.0720 112° Southeast 433 498 37,000  Level FlightAware
04:55AM 40.1610 -80.9800 112° Southeast 433 498 37,000  Level FlightAware
04:56AM 40.1300 -80.8820 112° Southeast 431 496 37,000  Level FlightAware
04:56AM 40.0960 -80.7720 112° Southeast 431 496 37,000  Level FlightAware
04:57AM 40.0660 -80.6760 112° Southeast 430 495 37,000  Level FlightAware
04:58AM 40.0320 -80.5680 112° Southeast 430 495 37,000  Level FlightAware
04:58AM 40.0000 -80.4690 113° Southeast 430 495 37,000  Level FlightAware
04:59AM 39.9710 -80.3750 112° Southeast 430 495 37,000  Level FlightAware
05:00AM 39.9370 -80.2700 113° Southeast 432 497 37,000  Level FlightAware
05:00AM 39.9100 -80.1830 112° Southeast 433 498 37,000  Level FlightAware
05:01AM 39.8750 -80.0730 112° Southeast 436 502 37,000  Level FlightAware
05:02AM 39.8470 -79.9620 108° East 438 504 37,000  Level FlightAware
05:03AM 39.8260 -79.8590 105° East 441 507 37,000  Level FlightAware
05:03AM 39.8010 -79.7430 106° East 444 511 37,000  Level FlightAware
05:04AM 39.7800 -79.6410 105° East 444 511 37,000  Level FlightAware
05:05AM 39.7570 -79.5350 106° East 444 511 37,000 -120 Level FlightAware
05:05AM 39.7330 -79.4210 105° East 446 513 36,900 -1,140 Descending FlightAware
05:06AM 39.7110 -79.3150 105° East 449 517 35,400 -2,580 Descending FlightAware
05:07AM 39.6780 -79.2040 111° Southeast 447 514 33,300 -3,120 Descending FlightAware
05:08AM 39.6570 -79.1040 105° East 435 501 31,000 -3,060 Descending FlightAware
05:08AM 39.6400 -78.9850 100° East 421 484 29,000 -2,580 Descending FlightAware
05:09AM 39.6180 -78.8880 106° East 411 473 27,400 -2,340 Descending FlightAware
05:10AM 39.5960 -78.7840 105° East 399 459 25,700 -2,340 Descending FlightAware
05:10AM 39.5750 -78.6900 106° East 387 445 24,100 -2,340 Descending FlightAware
05:11AM 39.5560 -78.6030 106° East 377 434 22,600 -2,280 Descending FlightAware
05:12AM 39.5360 -78.5140 106° East 367 422 21,100 -2,220 Descending FlightAware
05:12AM 39.5160 -78.4200 105° East 358 412 19,500 -2,220 Descending FlightAware
05:13AM 39.4950 -78.3290 107° East 351 404 17,800 -2,280 Descending FlightAware
05:14AM 39.4770 -78.2470 106° East 344 396 16,300 -2,040 Descending FlightAware
05:15AM 39.4590 -78.1690 107° East 338 389 15,100 -1,140 Descending FlightAware
05:15AM 39.4390 -78.0800 106° East 336 387 14,700 -540 Descending FlightAware
05:16AM 39.4210 -78.0010 106° East 344 396 14,400 -600 Descending FlightAware
05:17AM 39.4010 -77.9110 106° East 346 398 13,900 -720 Descending FlightAware
05:17AM 39.3890 -77.8400 102° East 347 399 13,500 -720 Descending FlightAware
05:18AM 39.3990 -77.7480 82° East 347 399 13,000 -840 Descending FlightAware
05:19AM 39.4070 -77.6600 83° East 329 379 12,300 -960 Descending FlightAware
05:19AM 39.3900 -77.5840 106° East 304 350 11,700 -1,320 Descending FlightAware
05:20AM 39.3640 -77.4970 111° Southeast 276 318 10,300 -1,380 Descending FlightAware
05:21AM 39.3510 -77.4520 110° East 260 299 9,800 -1,080 Descending FlightAware
05:21AM 39.3440 -77.4300 112° Southeast 259 298 9,500 -1,200 Descending FlightAware
05:22AM 39.3340 -77.3950 110° East 264 304 9,000 -1,200 Descending FlightAware
05:22AM 39.3210 -77.3490 110° East 258 297 8,400 -1,200 Descending FlightAware
05:22AM 39.3090 -77.3100 112° Southeast 254 292 7,900 -1,140 Descending FlightAware
05:23AM 39.2910 -77.2480 111° Southeast 242 278 7,100 -960 Descending FlightAware
05:24AM 39.2810 -77.2150 111° Southeast 243 280 6,800 -900 Descending FlightAware
05:24AM 39.2690 -77.1770 112° Southeast 242 278 6,300 -1,140 Descending FlightAware
05:25AM 39.2560 -77.1320 110° East 242 278 5,700 -1,080 Descending FlightAware
05:25AM 39.2430 -77.0890 111° Southeast 239 275 5,100 -960 Descending FlightAware
05:26AM 39.2300 -77.0460 111° Southeast 232 267 4,600 -900 Descending FlightAware
05:26AM 39.2280 -77.0400 113° Southeast 231 266 4,500 -900 Descending FlightAware
05:26AM 39.2160 -77.0010 112° Southeast 227 261 4,000 -1,020 Descending FlightAware
05:27AM 39.2050 -76.9660 112° Southeast 228 262 3,600 -900 Descending FlightAware
05:27AM 39.1950 -76.9340 112° Southeast 220 253 3,200 -720 Descending FlightAware
05:28AM 39.1860 -76.8960 107° East 209 241 2,900 -600 Descending FlightAware
05:28AM 39.1850 -76.8660 92° East 194 223 2,700 -660 Descending FlightAware
05:29AM 39.1830 -76.8290 94° East 183 211 2,300 -780 Descending FlightAware
05:29AM 39.1810 -76.8080 97° East 169 194 2,000 -540 Descending FlightAware
05:30AM 39.1790 -76.7660 94° East 151 174 1,700 -840 Descending FlightAware
05:31AM 39.1833 -76.7333 94° East 120 138 800 -1,200 Descending Potomac TRACON
05:33AM 39.1667 -76.6667 142° Southeast  Level FlightAware Approximate